createdAt,value
2023-03-05T00:00:07.769Z,22.78
2023-03-05T00:03:19.920Z,15.24
2023-03-05T00:06:30.336Z,14.59
2023-03-05T00:09:36.958Z,14.98
2023-03-05T00:12:42.819Z,17.69
2023-03-05T00:15:52.332Z,18.71
2023-03-05T00:19:01.062Z,22.13
2023-03-05T00:22:08.637Z,23.79
2023-03-05T00:25:14.677Z,20.84
2023-03-05T00:28:21.711Z,18.46
2023-03-05T00:31:34.220Z,17.31
2023-03-05T00:34:41.311Z,15.73
2023-03-05T00:37:47.158Z,16.00
2023-03-05T00:40:54.753Z,15.39
2023-03-05T00:44:00.507Z,16.77
2023-03-05T00:47:10.140Z,18.87
2023-03-05T00:50:16.033Z,23.26
2023-03-05T00:53:23.010Z,26.01
2023-03-05T00:56:31.067Z,19.24
2023-03-05T00:59:37.652Z,20.29
2023-03-05T01:02:46.457Z,20.90
2023-03-05T01:05:56.130Z,20.12
2023-03-05T01:09:02.110Z,21.12
2023-03-05T01:12:09.893Z,20.90
2023-03-05T01:15:15.803Z,20.93
2023-03-05T01:18:25.575Z,18.66
2023-03-05T01:21:31.400Z,19.62
2023-03-05T01:24:38.010Z,19.12
2023-03-05T01:27:44.156Z,20.35
2023-03-05T01:30:50.870Z,22.27
2023-03-05T01:34:00.424Z,40.53
2023-03-05T01:37:07.680Z,43.23
2023-03-05T01:40:17.151Z,32.51
2023-03-05T01:43:30.826Z,25.09
2023-03-05T01:46:39.517Z,40.51
2023-03-05T01:49:49.705Z,35.94
2023-03-05T01:53:03.275Z,24.38
2023-03-05T01:56:10.629Z,23.74
2023-03-05T01:59:19.674Z,31.08
2023-03-05T02:02:27.630Z,33.22
2023-03-05T02:05:39.289Z,32.16
2023-03-05T02:08:46.007Z,26.21
2023-03-05T02:11:52.147Z,25.77
2023-03-05T02:14:59.609Z,27.30
2023-03-05T02:18:06.036Z,28.70
2023-03-05T02:21:15.716Z,30.02
2023-03-05T02:24:37.674Z,26.88
2023-03-05T02:27:47.884Z,27.66
2023-03-05T02:30:54.250Z,26.29
2023-03-05T02:34:00.979Z,24.33
2023-03-05T02:37:10.822Z,24.69
2023-03-05T02:40:19.793Z,24.89
2023-03-05T02:43:25.726Z,24.44
2023-03-05T02:46:33.158Z,23.60
2023-03-05T02:49:39.260Z,24.05
2023-03-05T02:52:48.545Z,25.53
2023-03-05T02:55:56.761Z,23.94
2023-03-05T02:59:03.887Z,23.57
2023-03-05T03:02:10.717Z,23.80
2023-03-05T03:05:16.585Z,24.67
2023-03-05T03:08:28.095Z,23.61
2023-03-05T03:11:34.341Z,24.51
2023-03-05T03:14:44.867Z,25.86
2023-03-05T03:17:50.942Z,27.44
2023-03-05T03:20:58.146Z,30.45
2023-03-05T03:24:07.467Z,31.62
2023-03-05T03:27:14.771Z,30.42
2023-03-05T03:30:21.058Z,29.96
2023-03-05T03:33:27.871Z,26.44
2023-03-05T03:36:33.809Z,29.12
2023-03-05T03:39:43.225Z,26.39
2023-03-05T03:42:49.199Z,22.40
2023-03-05T03:45:56.164Z,21.63
2023-03-05T03:49:02.009Z,22.31
2023-03-05T03:52:10.035Z,19.68
2023-03-05T03:55:18.474Z,20.29
2023-03-05T03:58:25.018Z,22.80
2023-03-05T04:01:30.847Z,22.12
2023-03-05T04:04:37.559Z,21.27
2023-03-05T04:07:45.594Z,19.48
2023-03-05T04:10:54.828Z,17.60
2023-03-05T04:14:00.890Z,15.78
2023-03-05T04:17:07.590Z,15.52
2023-03-05T04:20:19.214Z,16.70
2023-03-05T04:23:28.294Z,17.64
2023-03-05T04:26:36.886Z,17.48
2023-03-05T04:29:43.584Z,14.44
2023-03-05T04:32:49.287Z,14.86
2023-03-05T04:35:56.115Z,13.92
2023-03-05T04:39:02.054Z,13.83
2023-03-05T04:42:11.486Z,12.65
2023-03-05T04:45:17.627Z,13.03
2023-03-05T04:48:27.662Z,12.29
2023-03-05T04:51:33.559Z,13.83
2023-03-05T04:54:40.190Z,20.96
2023-03-05T04:57:48.820Z,18.82
2023-03-05T05:00:55.495Z,17.10
2023-03-05T05:04:01.358Z,22.47
2023-03-05T05:07:10.483Z,26.81
2023-03-05T05:10:17.920Z,28.37
2023-03-05T05:13:27.195Z,15.25
2023-03-05T05:16:33.384Z,12.63
2023-03-05T05:19:40.044Z,12.86
2023-03-05T05:22:46.233Z,15.15
2023-03-05T05:26:01.562Z,17.18
2023-03-05T05:29:12.130Z,18.92
2023-03-05T05:32:19.154Z,22.62
2023-03-05T05:35:25.088Z,32.88
2023-03-05T05:38:31.877Z,30.83
2023-03-05T05:41:37.738Z,24.50
2023-03-05T05:44:48.835Z,18.70
2023-03-05T05:47:54.611Z,17.02
2023-03-05T05:51:01.940Z,16.52
2023-03-05T05:54:08.192Z,19.42
2023-03-05T05:57:14.885Z,17.76
2023-03-05T06:00:27.042Z,16.88
2023-03-05T06:03:33.932Z,21.23
2023-03-05T06:06:39.740Z,19.34
2023-03-05T06:09:46.592Z,28.61
2023-03-05T06:12:52.313Z,18.44
2023-03-05T06:16:04.560Z,19.82
2023-03-05T06:19:17.436Z,25.87
2023-03-05T06:22:24.182Z,18.51
2023-03-05T06:25:30.079Z,17.80
2023-03-05T06:28:38.553Z,19.97
2023-03-05T06:31:47.309Z,19.42
2023-03-05T06:34:54.093Z,18.27
2023-03-05T06:37:59.964Z,14.22
2023-03-05T06:41:12.160Z,14.09
2023-03-05T06:44:18.264Z,15.23
2023-03-05T06:47:27.530Z,16.73
2023-03-05T06:50:33.551Z,17.74
2023-03-05T06:53:40.151Z,20.38
2023-03-05T06:56:49.215Z,17.31
2023-03-05T06:59:55.802Z,18.55
2023-03-05T07:03:04.259Z,22.64
2023-03-05T07:06:13.213Z,25.80
2023-03-05T07:09:20.136Z,27.39
2023-03-05T07:12:26.793Z,28.16
2023-03-05T07:15:32.582Z,29.25
2023-03-05T07:18:41.909Z,33.91
2023-03-05T07:21:47.655Z,27.58
2023-03-05T07:24:54.204Z,23.47
2023-03-05T07:28:00.643Z,25.19
2023-03-05T07:31:11.673Z,26.17
2023-03-05T07:34:20.145Z,27.30
2023-03-05T07:37:26.718Z,28.29
2023-03-05T07:40:32.472Z,31.00
2023-03-05T07:43:39.716Z,33.66
2023-03-05T07:46:46.509Z,37.43
2023-03-05T07:49:55.911Z,38.06
2023-03-05T07:53:01.777Z,39.06
2023-03-05T07:56:10.292Z,39.17
2023-03-05T07:59:16.740Z,40.16
2023-03-05T08:02:23.397Z,41.48
2023-03-05T08:05:31.826Z,38.97
2023-03-05T08:08:39.115Z,35.44
2023-03-05T08:11:45.304Z,33.23
2023-03-05T08:14:52.188Z,33.06
2023-03-05T08:17:57.893Z,30.92
2023-03-05T08:21:07.911Z,31.55
2023-03-05T08:24:16.044Z,29.44
2023-03-05T08:27:22.631Z,28.65
2023-03-05T08:30:28.660Z,26.70
2023-03-05T08:33:35.506Z,24.37
2023-03-05T08:36:43.870Z,24.40
2023-03-05T08:39:50.485Z,24.53
2023-03-05T08:42:56.335Z,26.84
2023-03-05T08:46:05.249Z,41.68
2023-03-05T08:49:11.460Z,29.51
2023-03-05T08:52:20.632Z,34.84
2023-03-05T08:55:26.510Z,27.77
2023-03-05T08:58:33.375Z,27.38
2023-03-05T09:01:39.392Z,32.54
2023-03-05T09:04:46.080Z,35.89
2023-03-05T09:07:54.576Z,26.67
2023-03-05T09:11:01.474Z,25.78
2023-03-05T09:14:07.633Z,25.28
2023-03-05T09:17:14.238Z,27.34
2023-03-05T09:20:20.585Z,27.54
2023-03-05T09:23:29.888Z,30.98
2023-03-05T09:26:35.945Z,33.15
2023-03-05T09:29:43.259Z,29.76
2023-03-05T09:32:51.177Z,26.29
2023-03-05T09:35:58.254Z,30.39
2023-03-05T09:39:10.504Z,30.39
2023-03-05T09:43:05.198Z,29.68
2023-03-05T09:46:36.259Z,30.60
2023-03-05T09:50:01.310Z,30.12
2023-03-05T09:53:22.862Z,22.89
2023-03-05T09:56:39.499Z,23.21
2023-03-05T09:59:56.336Z,26.75
2023-03-05T10:03:14.080Z,25.84
2023-03-05T10:06:27.998Z,22.53
2023-03-05T10:09:52.612Z,22.92
2023-03-05T10:13:14.715Z,21.49
2023-03-05T10:17:06.170Z,24.03
2023-03-05T10:20:37.265Z,24.60
2023-03-05T10:24:19.675Z,24.12
2023-03-05T10:27:45.929Z,18.73
2023-03-05T10:31:25.067Z,17.95
2023-03-05T10:34:57.682Z,18.36
2023-03-05T10:38:57.165Z,13.54
2023-03-05T10:42:17.888Z,13.86
2023-03-05T10:45:32.467Z,15.50
2023-03-05T10:48:52.775Z,17.53
2023-03-05T10:52:10.115Z,15.96
2023-03-05T10:55:19.544Z,61.31
2023-03-05T10:58:28.335Z,57.24
2023-03-05T11:01:34.647Z,15.66
2023-03-05T11:04:45.044Z,19.32
2023-03-05T11:07:50.865Z,53.44
2023-03-05T11:11:18.563Z,89.21
2023-03-05T11:14:36.353Z,48.73
2023-03-05T11:17:48.015Z,122.16
2023-03-05T11:21:13.951Z,110.37
2023-03-05T11:24:22.709Z,72.08
2023-03-05T11:27:39.738Z,25.21
2023-03-05T11:30:57.133Z,11.73
2023-03-05T11:34:08.165Z,11.88
2023-03-05T11:37:28.667Z,45.46
2023-03-05T11:40:37.884Z,21.44
2023-03-05T11:43:47.753Z,13.12
2023-03-05T11:47:00.241Z,15.59
2023-03-05T11:50:26.424Z,70.53
2023-03-05T11:53:39.597Z,242.44
2023-03-05T11:56:49.585Z,441.39
2023-03-05T12:00:02.084Z,338.34
2023-03-05T12:03:19.326Z,539.35
2023-03-05T12:06:40.956Z,440.50
2023-03-05T12:09:55.871Z,144.09
2023-03-05T12:13:18.147Z,188.56
2023-03-05T12:16:44.019Z,130.03
2023-03-05T12:20:08.053Z,67.94
2023-03-05T12:23:20.801Z,127.77
2023-03-05T12:27:00.184Z,16.63
2023-03-05T12:30:09.003Z,10.34
2023-03-05T12:33:39.455Z,10.98
2023-03-05T12:36:46.467Z,8.67
2023-03-05T12:40:04.510Z,33.62
2023-03-05T12:43:36.291Z,28.01
2023-03-05T12:46:43.879Z,38.52
2023-03-05T12:49:51.542Z,24.96
2023-03-05T12:52:59.169Z,19.69
2023-03-05T12:56:20.100Z,16.90
2023-03-05T12:59:41.784Z,15.48
2023-03-05T13:02:55.941Z,19.44
2023-03-05T13:06:05.743Z,23.42
2023-03-05T13:09:21.959Z,16.49
2023-03-05T13:12:32.741Z,39.80
2023-03-05T13:15:42.720Z,52.92
2023-03-05T13:18:52.729Z,64.12
2023-03-05T13:22:05.339Z,65.70
2023-03-05T13:25:20.710Z,32.14
2023-03-05T13:28:28.298Z,13.30
2023-03-05T13:31:39.580Z,12.12
2023-03-05T13:34:49.933Z,14.26
2023-03-05T13:37:55.945Z,20.84
2023-03-05T13:41:22.671Z,43.13
2023-03-05T13:44:29.725Z,8.94
2023-03-05T13:47:39.874Z,9.16
2023-03-05T13:50:45.691Z,7.93
2023-03-05T13:53:53.256Z,8.94
2023-03-05T13:57:02.451Z,7.08
2023-03-05T14:00:29.879Z,10.62
2023-03-05T14:03:38.377Z,16.97
2023-03-05T14:06:51.381Z,18.18
2023-03-05T14:09:57.638Z,16.49
2023-03-05T14:13:09.351Z,17.25
2023-03-05T14:16:26.332Z,12.71
2023-03-05T14:19:44.455Z,12.48
2023-03-05T14:22:51.695Z,9.26
2023-03-05T14:26:30.701Z,10.36
2023-03-05T14:29:37.621Z,10.13
2023-03-05T14:32:49.044Z,9.92
2023-03-05T14:35:59.768Z,9.67
2023-03-05T14:39:06.410Z,13.01
2023-03-05T14:42:38.989Z,21.13
2023-03-05T14:45:48.098Z,16.81
2023-03-05T14:48:54.522Z,19.73
2023-03-05T14:52:03.776Z,21.52
2023-03-05T14:55:13.653Z,13.33
2023-03-05T14:58:26.190Z,14.77
2023-03-05T15:01:32.113Z,14.09
2023-03-05T15:04:40.701Z,10.56
2023-03-05T15:07:51.454Z,13.57
2023-03-05T15:10:59.245Z,14.07
2023-03-05T15:14:05.070Z,14.02
2023-03-05T15:17:21.589Z,23.15
2023-03-05T15:20:32.326Z,16.23
2023-03-05T15:23:41.562Z,18.26
2023-03-05T15:26:49.283Z,15.24
2023-03-05T15:29:56.880Z,16.20
2023-03-05T15:33:06.591Z,23.10
2023-03-05T15:36:13.787Z,15.52
2023-03-05T15:39:24.788Z,13.75
2023-03-05T15:42:31.467Z,11.18
2023-03-05T15:45:37.385Z,11.19
2023-03-05T15:48:50.054Z,11.66
2023-03-05T15:51:57.053Z,14.74
2023-03-05T15:55:07.905Z,15.78
2023-03-05T15:58:19.270Z,13.04
2023-03-05T16:01:26.331Z,12.22
2023-03-05T16:04:32.911Z,29.59
2023-03-05T16:07:48.615Z,19.79
2023-03-05T16:10:57.746Z,15.45
2023-03-05T16:14:11.311Z,14.43
2023-03-05T16:17:18.990Z,14.80
2023-03-05T16:20:26.688Z,16.89
2023-03-05T16:23:33.661Z,19.93
2023-03-05T16:26:44.433Z,14.40
2023-03-05T16:29:51.272Z,19.96
2023-03-05T16:32:58.078Z,16.79
2023-03-05T16:36:27.300Z,15.50
2023-03-05T16:39:34.279Z,13.65
2023-03-05T16:42:43.650Z,11.41
2023-03-05T16:45:50.408Z,13.66
2023-03-05T16:48:56.650Z,18.26
2023-03-05T16:52:17.759Z,17.70
2023-03-05T16:55:24.356Z,15.51
2023-03-05T16:58:34.233Z,14.92
2023-03-05T17:01:40.075Z,16.91
2023-03-05T17:04:47.205Z,14.97
2023-03-05T17:07:54.714Z,14.14
2023-03-05T17:11:02.176Z,15.09
2023-03-05T17:14:10.661Z,16.56
2023-03-05T17:17:17.960Z,30.20
2023-03-05T17:20:23.774Z,29.53
2023-03-05T17:23:31.418Z,18.41
2023-03-05T17:26:38.437Z,19.10
2023-03-05T17:29:47.720Z,29.43
2023-03-05T17:32:58.306Z,33.84
2023-03-05T17:36:05.733Z,33.00
2023-03-05T17:39:12.497Z,22.22
2023-03-05T17:42:20.656Z,25.20
2023-03-05T17:45:30.041Z,27.28
2023-03-05T17:48:39.576Z,23.31
2023-03-05T17:51:45.684Z,18.81
2023-03-05T17:54:53.281Z,19.45
2023-03-05T17:57:59.972Z,24.08
2023-03-05T18:01:10.728Z,20.87
2023-03-05T18:04:17.331Z,20.63
2023-03-05T18:07:24.041Z,24.53
2023-03-05T18:10:31.232Z,24.15
2023-03-05T18:13:38.524Z,38.48
2023-03-05T18:16:50.990Z,86.18
2023-03-05T18:20:00.236Z,36.06
2023-03-05T18:23:09.703Z,70.99
2023-03-05T18:26:18.929Z,93.66
2023-03-05T18:29:25.900Z,140.01
2023-03-05T18:32:39.624Z,114.44
2023-03-05T18:35:45.535Z,194.72
2023-03-05T18:38:54.729Z,122.85
2023-03-05T18:42:00.738Z,154.38
2023-03-05T18:45:11.104Z,115.55
2023-03-05T18:48:19.713Z,124.67
2023-03-05T18:51:29.414Z,113.31
2023-03-05T18:54:35.423Z,112.05
2023-03-05T18:57:42.312Z,103.76
2023-03-05T19:00:49.522Z,98.84
2023-03-05T19:03:59.104Z,90.90
2023-03-05T19:07:05.453Z,54.33
2023-03-05T19:10:15.148Z,48.99
2023-03-05T19:13:43.861Z,57.31
2023-03-05T19:16:50.418Z,50.44
2023-03-05T19:20:00.917Z,43.37
2023-03-05T19:23:17.944Z,53.09
2023-03-05T19:26:23.749Z,118.41
2023-03-05T19:29:34.538Z,125.94
2023-03-05T19:32:40.808Z,85.82
2023-03-05T19:35:50.132Z,44.44
2023-03-05T19:38:56.068Z,36.68
2023-03-05T19:42:03.584Z,50.81
2023-03-05T19:45:14.118Z,30.24
2023-03-05T19:48:20.751Z,27.57
2023-03-05T19:51:31.256Z,22.99
2023-03-05T19:54:38.395Z,22.07
2023-03-05T19:57:44.393Z,22.06
2023-03-05T20:00:51.271Z,24.15
2023-03-05T20:04:00.363Z,26.98
2023-03-05T20:07:10.619Z,37.37
2023-03-05T20:10:19.784Z,35.80
2023-03-05T20:13:28.104Z,29.73
2023-03-05T20:16:39.247Z,24.77
2023-03-05T20:19:45.873Z,27.93
2023-03-05T20:22:54.648Z,28.66
2023-03-05T20:26:02.425Z,23.44
2023-03-05T20:29:08.788Z,28.89
2023-03-05T20:32:15.524Z,38.24
2023-03-05T20:35:22.046Z,68.58
2023-03-05T20:38:33.162Z,46.54
2023-03-05T20:41:42.221Z,43.24
2023-03-05T20:44:49.037Z,41.44
2023-03-05T20:47:54.923Z,50.77
2023-03-05T20:51:13.096Z,58.42
2023-03-05T20:54:24.128Z,46.96
2023-03-05T20:57:31.071Z,46.70
2023-03-05T21:00:37.289Z,54.75
2023-03-05T21:03:44.350Z,33.72
2023-03-05T21:06:55.479Z,31.74
2023-03-05T21:10:04.965Z,46.86
2023-03-05T21:13:10.928Z,35.37
2023-03-05T21:16:21.422Z,34.37
2023-03-05T21:19:27.275Z,29.23
2023-03-05T21:22:33.879Z,26.27
2023-03-05T21:25:42.306Z,25.12
2023-03-05T21:28:48.980Z,27.03
2023-03-05T21:31:55.156Z,29.69
2023-03-05T21:35:01.824Z,33.31
2023-03-05T21:38:09.975Z,29.00
2023-03-05T21:41:20.686Z,24.16
2023-03-05T21:44:26.583Z,26.91
2023-03-05T21:47:33.161Z,29.04
2023-03-05T21:50:43.465Z,27.91
2023-03-05T21:53:50.276Z,32.16
2023-03-05T21:56:58.795Z,30.51
2023-03-05T22:00:08.413Z,26.39
2023-03-05T22:03:17.652Z,24.34
2023-03-05T22:06:25.277Z,26.93
2023-03-05T22:09:31.092Z,28.70
2023-03-05T22:13:17.955Z,32.34
2023-03-05T22:16:25.883Z,26.69
2023-03-05T22:19:33.103Z,23.69
2023-03-05T22:22:38.963Z,24.30
2023-03-05T22:25:46.855Z,25.09
2023-03-05T22:28:56.003Z,25.83
2023-03-05T22:32:02.644Z,27.79
2023-03-05T22:35:15.498Z,31.07
2023-03-05T22:38:22.623Z,38.52
2023-03-05T22:41:28.532Z,60.43
2023-03-05T22:44:37.860Z,43.62
2023-03-05T22:47:43.952Z,34.81
2023-03-05T22:50:59.272Z,37.40
2023-03-05T22:54:05.305Z,48.62
2023-03-05T22:57:12.298Z,51.48
2023-03-05T23:00:24.399Z,62.85
2023-03-05T23:03:31.215Z,47.81
2023-03-05T23:06:37.152Z,47.37
2023-03-05T23:09:44.148Z,50.23
2023-03-05T23:12:53.633Z,57.30
2023-03-05T23:16:02.834Z,51.23
2023-03-05T23:19:08.675Z,46.77
2023-03-05T23:22:17.228Z,69.55
2023-03-05T23:25:23.793Z,45.93
2023-03-05T23:28:30.554Z,34.94
2023-03-05T23:31:38.982Z,37.42
2023-03-05T23:34:45.749Z,28.87
2023-03-05T23:37:52.688Z,38.92
2023-03-05T23:41:03.741Z,65.21
2023-03-05T23:44:09.680Z,51.86
2023-03-05T23:47:18.942Z,56.55
2023-03-05T23:50:28.637Z,42.95
2023-03-05T23:53:35.159Z,50.42
2023-03-05T23:56:41.159Z,71.55
2023-03-05T23:59:47.766Z,73.69
